Time;durP1;ratioP1;P1;durP2;ratioP2;P2;SDS_P1;SDS_P2;PMS_P1;PMS_P2;Temp;Humidity;BMP_temperature;BMP_pressure;BME280_temperature;BME280_humidity;BME280_pressure;Samples;Min_cycle;Max_cycle;Signal;HPM_P1;HPM_P2
2022/10/11 00:00:32;;;;;;;;;;;13.00;68.50;;;;;;5033646;28;19913;-79
2022/10/11 00:02:58;;;;;;;;;;;12.90;68.50;;;;;;5034826;28;19917;-79
2022/10/11 00:05:24;;;;;;;;;;;12.90;68.60;;;;;;5033771;28;20251;-80
2022/10/11 00:07:49;;;;;;;;;;;12.90;68.50;;;;;;5017021;28;19929;-79
2022/10/11 00:10:16;;;;;;;;;;;12.90;68.50;;;;;;5016917;28;20008;-79
2022/10/11 00:12:41;;;;;;;;;;;12.80;68.50;;;;;;5033754;28;19914;-78
2022/10/11 00:15:07;;;;;;;;;;;12.80;68.50;;;;;;5033042;28;20025;-79
2022/10/11 00:17:33;;;;;;;;;;;12.80;68.60;;;;;;5016843;28;19971;-79
2022/10/11 00:19:59;;;;;;;;;;;12.80;68.60;;;;;;5033459;28;20339;-78
2022/10/11 00:22:25;;;;;;;;;;;12.80;68.60;;;;;;5049748;28;19935;-80
2022/10/11 00:24:51;;;;;;;;;;;12.70;68.50;;;;;;5033411;28;19924;-79
2022/10/11 00:27:17;;;;;;;;;;;12.70;68.60;;;;;;5034047;28;19913;-79
2022/10/11 00:29:43;;;;;;;;;;;12.70;68.60;;;;;;5049308;28;19932;-79
2022/10/11 00:32:08;;;;;;;;;;;12.70;68.60;;;;;;5016666;28;19955;-79
2022/10/11 00:34:34;;;;;;;;;;;12.60;68.50;;;;;;5033007;28;19925;-79
2022/10/11 00:37:00;;;;;;;;;;;12.60;68.60;;;;;;5050104;28;19986;-79
2022/10/11 00:39:25;;;;;;;;;;;12.60;68.60;;;;;;5032940;28;19917;-79
2022/10/11 00:41:51;;;;;;;;;;;12.60;68.60;;;;;;5016515;28;20054;-79
2022/10/11 00:44:18;;;;;;;;;;;12.60;68.70;;;;;;5016894;28;20323;-79
2022/10/11 00:47:05;;;;;;;;;;;12.50;68.60;;;;;;5034511;28;19995;-79
2022/10/11 00:49:37;;;;;;;;;;;12.50;68.60;;;;;;5033084;28;19917;-79
2022/10/11 00:52:05;;;;;;;;;;;12.50;68.70;;;;;;5033732;28;19913;-78
2022/10/11 00:54:32;;;;;;;;;;;12.50;68.70;;;;;;5033631;28;19959;-79
2022/10/11 00:57:02;;;;;;;;;;;12.40;68.70;;;;;;5049428;28;20403;-79
2022/10/11 00:59:28;;;;;;;;;;;12.40;68.60;;;;;;5033850;28;19913;-79
2022/10/11 01:01:54;;;;;;;;;;;12.40;68.70;;;;;;5032632;28;19913;-78
2022/10/11 01:04:20;;;;;;;;;;;12.40;68.70;;;;;;5032703;28;20005;-79
2022/10/11 01:06:46;;;;;;;;;;;12.30;68.60;;;;;;5032740;28;19960;-79
2022/10/11 01:09:12;;;;;;;;;;;12.30;68.60;;;;;;5016038;28;19913;-79
2022/10/11 01:11:39;;;;;;;;;;;12.30;68.60;;;;;;5033336;28;20000;-78
2022/10/11 01:14:14;;;;;;;;;;;12.30;68.70;;;;;;5032772;28;20354;-79
2022/10/11 01:16:43;;;;;;;;;;;12.30;68.70;;;;;;5034111;28;19924;-79
2022/10/11 01:19:27;;;;;;;;;;;12.30;68.70;;;;;;5032413;28;20400;-79
2022/10/11 01:22:03;;;;;;;;;;;12.20;68.60;;;;;;5049190;28;19913;-79
2022/10/11 01:24:40;;;;;;;;;;;12.20;68.70;;;;;;5033137;28;19913;-79
2022/10/11 01:27:12;;;;;;;;;;;12.20;68.70;;;;;;5033348;28;19921;-78
2022/10/11 01:30:03;;;;;;;;;;;12.10;68.70;;;;;;5033810;28;20007;-79
2022/10/11 01:32:42;;;;;;;;;;;12.10;68.70;;;;;;5049141;28;19913;-78
2022/10/11 01:35:17;;;;;;;;;;;12.10;68.70;;;;;;5032324;28;20388;-78
2022/10/11 01:37:45;;;;;;;;;;;12.10;68.70;;;;;;5032402;28;19917;-78
2022/10/11 01:40:20;;;;;;;;;;;12.10;68.70;;;;;;5032269;28;19917;-79
2022/10/11 01:42:46;;;;;;;;;;;12.00;68.70;;;;;;5037093;28;19913;-79
2022/10/11 01:45:17;;;;;;;;;;;12.00;68.70;;;;;;5036137;28;19916;-78
2022/10/11 01:47:44;;;;;;;;;;;12.00;68.70;;;;;;5035898;28;20000;-78
2022/10/11 01:50:29;;;;;;;;;;;12.00;68.70;;;;;;5019933;28;19932;-79
2022/10/11 01:52:55;;;;;;;;;;;12.00;68.70;;;;;;5052892;28;20000;-78
2022/10/11 01:55:31;;;;;;;;;;;12.00;68.70;;;;;;5035627;28;19917;-80
2022/10/11 01:58:20;;;;;;;;;;;11.90;68.70;;;;;;5035981;28;19928;-79
2022/10/11 02:01:00;;;;;;;;;;;11.90;68.70;;;;;;5032473;28;19917;-79
2022/10/11 02:03:41;;;;;;;;;;;11.90;68.70;;;;;;5036178;28;20054;-79
2022/10/11 02:06:06;;;;;;;;;;;11.90;68.80;;;;;;5036741;28;19913;-79
2022/10/11 02:08:36;;;;;;;;;;;11.80;68.70;;;;;;5037219;28;20278;-79
2022/10/11 02:11:27;;;;;;;;;;;11.90;68.80;;;;;;5037231;28;19953;-78
2022/10/11 02:13:59;;;;;;;;;;;11.80;68.80;;;;;;5032763;28;20005;-79
2022/10/11 02:16:27;;;;;;;;;;;11.80;68.80;;;;;;5052010;28;19917;-79
2022/10/11 02:18:54;;;;;;;;;;;11.80;68.80;;;;;;5036855;28;19955;-79
2022/10/11 02:21:22;;;;;;;;;;;11.70;68.80;;;;;;5036433;28;19952;-79
2022/10/11 02:23:54;;;;;;;;;;;11.70;68.80;;;;;;5035859;28;19917;-78
2022/10/11 02:26:20;;;;;;;;;;;11.70;68.80;;;;;;5035709;28;19994;-79
2022/10/11 02:28:46;;;;;;;;;;;11.70;68.80;;;;;;5036364;28;19963;-79
2022/10/11 02:31:14;;;;;;;;;;;11.70;68.80;;;;;;5018977;28;20008;-80
2022/10/11 02:33:43;;;;;;;;;;;11.70;68.80;;;;;;5034981;28;20364;-78
2022/10/11 02:36:15;;;;;;;;;;;11.60;68.80;;;;;;5036966;28;19957;-78
2022/10/11 02:38:49;;;;;;;;;;;11.60;68.80;;;;;;5034863;28;19917;-79
2022/10/11 02:41:19;;;;;;;;;;;11.60;68.80;;;;;;5051543;28;20277;-79
2022/10/11 02:43:49;;;;;;;;;;;11.60;68.80;;;;;;5035777;28;19971;-79
2022/10/11 02:46:15;;;;;;;;;;;11.60;68.90;;;;;;5035271;28;20277;-79
2022/10/11 02:48:40;;;;;;;;;;;11.50;68.80;;;;;;5018417;28;19928;-79
2022/10/11 02:51:10;;;;;;;;;;;11.50;68.80;;;;;;5018399;28;19909;-79
2022/10/11 02:53:36;;;;;;;;;;;11.50;68.90;;;;;;5035556;28;20388;-79
2022/10/11 02:56:01;;;;;;;;;;;11.50;68.80;;;;;;5018256;28;20016;-79
2022/10/11 02:58:27;;;;;;;;;;;11.50;68.80;;;;;;5034668;28;20286;-79
2022/10/11 03:00:52;;;;;;;;;;;11.50;68.80;;;;;;5035675;28;20258;-79
2022/10/11 03:03:18;;;;;;;;;;;11.40;68.80;;;;;;5035054;28;19917;-80
2022/10/11 03:05:44;;;;;;;;;;;11.40;68.80;;;;;;5018043;28;20269;-79
2022/10/11 03:08:11;;;;;;;;;;;11.40;68.80;;;;;;5036059;28;19913;-79
2022/10/11 03:10:37;;;;;;;;;;;11.40;68.80;;;;;;5035758;28;19963;-79
2022/10/11 03:13:03;;;;;;;;;;;11.40;69.50;;;;;;5051343;28;19913;-79
2022/10/11 03:15:29;;;;;;;;;;;11.40;68.80;;;;;;5035611;28;19909;-78
2022/10/11 03:17:54;;;;;;;;;;;11.40;68.80;;;;;;5018118;28;19921;-79
2022/10/11 03:20:20;;;;;;;;;;;11.30;68.80;;;;;;5034323;28;19917;-79
2022/10/11 03:22:46;;;;;;;;;;;11.30;68.80;;;;;;5034341;28;19917;-79
2022/10/11 03:25:11;;;;;;;;;;;11.30;68.80;;;;;;5034251;28;19914;-79
2022/10/11 03:27:37;;;;;;;;;;;11.30;68.80;;;;;;5034867;28;19940;-79
2022/10/11 03:30:03;;;;;;;;;;;11.20;68.80;;;;;;5034558;28;19917;-79
2022/10/11 03:32:28;;;;;;;;;;;11.20;68.80;;;;;;5034072;28;20281;-79
2022/10/11 03:34:54;;;;;;;;;;;11.20;68.80;;;;;;5034066;28;19921;-79
2022/10/11 03:37:20;;;;;;;;;;;11.20;68.90;;;;;;5034037;28;20292;-79
2022/10/11 03:39:45;;;;;;;;;;;11.20;68.80;;;;;;5017819;28;19928;-79
2022/10/11 03:42:12;;;;;;;;;;;11.20;68.90;;;;;;5033714;28;20318;-79
2022/10/11 03:44:37;;;;;;;;;;;11.20;68.80;;;;;;5033706;28;20055;-79
2022/10/11 03:47:03;;;;;;;;;;;11.20;68.80;;;;;;5033500;28;19953;-79
2022/10/11 03:49:29;;;;;;;;;;;11.10;68.80;;;;;;5033843;28;19922;-79
2022/10/11 03:51:54;;;;;;;;;;;11.10;68.80;;;;;;5035808;28;19913;-79
2022/10/11 03:54:20;;;;;;;;;;;11.10;68.90;;;;;;5035513;28;20305;-79
2022/10/11 03:56:46;;;;;;;;;;;11.10;68.90;;;;;;5034786;28;19916;-79
2022/10/11 03:59:11;;;;;;;;;;;11.10;68.90;;;;;;5017108;28;20270;-79
2022/10/11 04:01:37;;;;;;;;;;;11.00;68.80;;;;;;5034766;28;19940;-79
2022/10/11 04:04:03;;;;;;;;;;;11.00;68.90;;;;;;5016224;28;20263;-79
2022/10/11 04:06:29;;;;;;;;;;;11.10;68.90;;;;;;5033527;28;19920;-82
2022/10/11 04:08:55;;;;;;;;;;;11.00;68.90;;;;;;5034338;28;19913;-78
2022/10/11 04:11:20;;;;;;;;;;;11.00;68.90;;;;;;5033254;28;20060;-78
2022/10/11 04:13:46;;;;;;;;;;;11.00;68.90;;;;;;5033302;28;19916;-77
2022/10/11 04:16:12;;;;;;;;;;;11.00;68.90;;;;;;5049811;28;19917;-78
2022/10/11 04:18:37;;;;;;;;;;;11.00;68.90;;;;;;5033445;28;20340;-77
2022/10/11 04:21:03;;;;;;;;;;;11.00;68.90;;;;;;5032992;28;20492;-77
2022/10/11 04:23:29;;;;;;;;;;;11.00;69.00;;;;;;5034098;28;20415;-77
2022/10/11 04:25:55;;;;;;;;;;;11.00;69.00;;;;;;5033028;28;19952;-78
2022/10/11 04:28:21;;;;;;;;;;;11.00;69.00;;;;;;5034372;28;19917;-78
2022/10/11 04:30:47;;;;;;;;;;;11.00;69.00;;;;;;5033990;28;19975;-79
2022/10/11 04:33:12;;;;;;;;;;;11.00;69.00;;;;;;5016620;28;20000;-79
2022/10/11 04:35:38;;;;;;;;;;;10.90;69.00;;;;;;5033538;28;20443;-79
2022/10/11 04:38:04;;;;;;;;;;;10.90;69.00;;;;;;5034080;28;19925;-78
2022/10/11 04:40:30;;;;;;;;;;;10.90;69.00;;;;;;5049734;28;19924;-78
2022/10/11 04:42:56;;;;;;;;;;;10.90;69.00;;;;;;5032674;28;20278;-78
2022/10/11 04:45:21;;;;;;;;;;;10.90;69.00;;;;;;5032782;28;19917;-80
2022/10/11 04:47:47;;;;;;;;;;;10.90;69.00;;;;;;5032882;28;20008;-79
2022/10/11 04:50:13;;;;;;;;;;;10.90;69.00;;;;;;5032742;28;19918;-79
2022/10/11 04:52:38;;;;;;;;;;;10.90;69.00;;;;;;5033584;28;19913;-80
2022/10/11 04:55:04;;;;;;;;;;;10.90;69.00;;;;;;5032922;28;19917;-76
2022/10/11 04:57:30;;;;;;;;;;;10.90;69.10;;;;;;5032389;28;20426;-79
2022/10/11 04:59:55;;;;;;;;;;;10.90;69.10;;;;;;5032503;28;20434;-79
2022/10/11 05:02:21;;;;;;;;;;;10.90;69.10;;;;;;5032389;28;20297;-80
2022/10/11 05:04:46;;;;;;;;;;;10.90;69.10;;;;;;5015673;28;19920;-78
2022/10/11 05:07:12;;;;;;;;;;;10.90;69.10;;;;;;5031998;28;20273;-78
2022/10/11 05:09:38;;;;;;;;;;;10.80;69.10;;;;;;5049351;28;19913;-79
2022/10/11 05:12:03;;;;;;;;;;;10.90;69.10;;;;;;5034047;28;19916;-79
2022/10/11 05:14:29;;;;;;;;;;;10.80;69.10;;;;;;5032112;28;19963;-78
2022/10/11 05:16:55;;;;;;;;;;;10.90;69.20;;;;;;5032105;28;20415;-78
2022/10/11 05:19:20;;;;;;;;;;;10.80;69.10;;;;;;5032076;28;19921;-79
2022/10/11 05:21:46;;;;;;;;;;;10.80;69.10;;;;;;5015966;28;19917;-78
2022/10/11 05:24:11;;;;;;;;;;;10.80;69.10;;;;;;5032549;28;19920;-78
2022/10/11 05:26:37;;;;;;;;;;;10.90;69.20;;;;;;5032151;28;19917;-78
2022/10/11 05:29:02;;;;;;;;;;;10.80;69.10;;;;;;5033206;28;19909;-79
2022/10/11 05:31:28;;;;;;;;;;;10.80;69.20;;;;;;5032685;28;19982;-79
2022/10/11 05:33:54;;;;;;;;;;;10.80;69.20;;;;;;5032225;28;20019;-78
2022/10/11 05:36:19;;;;;;;;;;;10.80;69.20;;;;;;5032546;28;19921;-78
2022/10/11 05:38:45;;;;;;;;;;;10.80;69.10;;;;;;5032315;28;19917;-78
2022/10/11 05:41:14;;;;;;;;;;;10.80;69.20;;;;;;5032607;28;20281;-78
2022/10/11 05:43:40;;;;;;;;;;;10.80;69.20;;;;;;5032482;28;19967;-78
2022/10/11 05:46:06;;;;;;;;;;;10.80;69.20;;;;;;5032911;28;19917;-79
2022/10/11 05:48:32;;;;;;;;;;;10.80;69.20;;;;;;5032885;28;19996;-78
2022/10/11 05:50:59;;;;;;;;;;;10.80;69.20;;;;;;5049011;28;19913;-78
2022/10/11 05:53:24;;;;;;;;;;;10.70;69.20;;;;;;5032054;28;19909;-79
2022/10/11 05:55:50;;;;;;;;;;;10.70;69.10;;;;;;5031981;28;19927;-78
2022/10/11 05:58:17;;;;;;;;;;;10.70;69.10;;;;;;5032950;28;19913;-79
2022/10/11 06:00:43;;;;;;;;;;;10.70;69.20;;;;;;5033391;28;19925;-79
2022/10/11 06:03:10;;;;;;;;;;;10.70;69.20;;;;;;5032341;28;19909;-80
2022/10/11 06:05:35;;;;;;;;;;;10.70;69.20;;;;;;5048870;28;20381;-79
2022/10/11 06:08:01;;;;;;;;;;;10.70;69.20;;;;;;5032666;28;19913;-79
2022/10/11 06:10:27;;;;;;;;;;;10.70;69.20;;;;;;5033549;28;19940;-79
2022/10/11 06:12:52;;;;;;;;;;;10.60;69.10;;;;;;5048325;28;19913;-79
2022/10/11 06:15:18;;;;;;;;;;;10.60;69.10;;;;;;5016256;28;19924;-78
2022/10/11 06:17:45;;;;;;;;;;;10.70;69.20;;;;;;5032634;28;20030;-79
2022/10/11 06:20:11;;;;;;;;;;;10.70;69.20;;;;;;5033458;28;20450;-79
2022/10/11 06:22:37;;;;;;;;;;;10.60;69.20;;;;;;5031506;28;19913;-79
2022/10/11 06:25:02;;;;;;;;;;;10.60;69.20;;;;;;5031729;28;20004;-79
2022/10/11 06:27:28;;;;;;;;;;;10.60;69.20;;;;;;5034135;28;19909;-79
2022/10/11 06:29:55;;;;;;;;;;;10.60;69.80;;;;;;5035932;28;19949;-79
2022/10/11 06:32:21;;;;;;;;;;;10.60;69.20;;;;;;5018932;28;20267;-79
2022/10/11 06:34:46;;;;;;;;;;;10.60;69.20;;;;;;5051612;28;19921;-79
2022/10/11 06:37:12;;;;;;;;;;;10.50;69.10;;;;;;5018640;28;20400;-80
2022/10/11 06:39:38;;;;;;;;;;;10.60;69.20;;;;;;5034956;28;19921;-79
2022/10/11 06:42:03;;;;;;;;;;;10.50;69.20;;;;;;5034895;28;19920;-79
2022/10/11 06:44:29;;;;;;;;;;;10.50;69.20;;;;;;5035342;28;20367;-80
2022/10/11 06:46:55;;;;;;;;;;;10.50;69.20;;;;;;5035000;28;19913;-80
2022/10/11 06:49:20;;;;;;;;;;;10.50;69.20;;;;;;5051644;28;19921;-80
2022/10/11 06:51:46;;;;;;;;;;;10.50;69.20;;;;;;5035388;28;19925;-79
2022/10/11 06:54:11;;;;;;;;;;;10.50;69.20;;;;;;5036228;28;19924;-80
2022/10/11 06:56:37;;;;;;;;;;;10.50;69.20;;;;;;5018596;28;19921;-79
2022/10/11 06:59:03;;;;;;;;;;;10.50;69.20;;;;;;5036302;28;19917;-80
2022/10/11 07:01:29;;;;;;;;;;;10.50;69.20;;;;;;5019038;28;19924;-79
2022/10/11 07:03:56;;;;;;;;;;;10.50;69.30;;;;;;5018971;28;20233;-79
2022/10/11 07:06:22;;;;;;;;;;;10.50;69.30;;;;;;5035700;28;19913;-80
2022/10/11 07:08:48;;;;;;;;;;;10.50;69.30;;;;;;5034489;28;19936;-79
2022/10/11 07:11:16;;;;;;;;;;;10.50;69.30;;;;;;5034908;28;20358;-79
2022/10/11 07:13:42;;;;;;;;;;;10.50;69.30;;;;;;5036048;28;19949;-79
2022/10/11 07:16:09;;;;;;;;;;;10.50;69.30;;;;;;5035419;28;19960;-79
2022/10/11 07:18:34;;;;;;;;;;;10.50;69.30;;;;;;5035671;28;20004;-79
2022/10/11 07:21:04;;;;;;;;;;;10.50;69.30;;;;;;5035425;28;20008;-79
2022/10/11 07:23:30;;;;;;;;;;;10.60;69.40;;;;;;5050946;28;20007;-79
2022/10/11 07:25:55;;;;;;;;;;;10.60;69.40;;;;;;5034283;28;19953;-79
2022/10/11 07:28:21;;;;;;;;;;;10.60;69.40;;;;;;5034537;28;20349;-79
2022/10/11 07:30:47;;;;;;;;;;;10.60;69.40;;;;;;5034346;28;19951;-79
2022/10/11 07:33:13;;;;;;;;;;;10.60;69.40;;;;;;5050859;28;20281;-79
2022/10/11 07:35:38;;;;;;;;;;;10.60;69.40;;;;;;5034211;28;20412;-79
2022/10/11 07:38:05;;;;;;;;;;;10.60;69.40;;;;;;5033125;28;19967;-79
2022/10/11 07:40:31;;;;;;;;;;;10.60;69.40;;;;;;5035052;28;19927;-79
2022/10/11 07:42:57;;;;;;;;;;;10.70;69.40;;;;;;5034003;28;19935;-79
2022/10/11 07:45:29;;;;;;;;;;;10.70;69.40;;;;;;5050551;28;19913;-79
2022/10/11 07:47:55;;;;;;;;;;;10.70;69.40;;;;;;5035239;28;19913;-79
2022/10/11 07:50:20;;;;;;;;;;;10.70;69.40;;;;;;5033592;28;19971;-78
2022/10/11 07:52:46;;;;;;;;;;;10.70;69.40;;;;;;5034056;28;19917;-78
2022/10/11 07:55:11;;;;;;;;;;;10.70;69.40;;;;;;5034659;28;20007;-79
2022/10/11 07:57:37;;;;;;;;;;;10.80;69.50;;;;;;5016914;28;19917;-79
2022/10/11 08:00:03;;;;;;;;;;;10.80;69.50;;;;;;5034676;28;19961;-79
2022/10/11 08:02:37;;;;;;;;;;;10.80;69.50;;;;;;5018374;28;19968;-79
2022/10/11 08:05:03;;;;;;;;;;;10.80;69.50;;;;;;5033664;28;19917;-79
2022/10/11 08:07:28;;;;;;;;;;;10.80;69.50;;;;;;5033509;28;19960;-79
2022/10/11 08:09:54;;;;;;;;;;;10.80;69.50;;;;;;5034437;28;19945;-79
2022/10/11 08:12:20;;;;;;;;;;;10.90;69.50;;;;;;5034227;28;19921;-79
2022/10/11 08:14:46;;;;;;;;;;;10.90;69.50;;;;;;5033820;28;19924;-79
2022/10/11 08:17:12;;;;;;;;;;;10.90;69.60;;;;;;5033476;28;20388;-79
2022/10/11 08:19:38;;;;;;;;;;;10.90;69.50;;;;;;5033546;28;19917;-80
2022/10/11 08:22:03;;;;;;;;;;;10.90;69.50;;;;;;5034535;28;19920;-79
2022/10/11 08:24:29;;;;;;;;;;;10.90;69.50;;;;;;5034487;28;19917;-79
2022/10/11 08:26:55;;;;;;;;;;;11.00;69.60;;;;;;5033308;28;20373;-79
2022/10/11 08:29:20;;;;;;;;;;;11.00;69.60;;;;;;5034588;28;20368;-79
2022/10/11 08:31:46;;;;;;;;;;;11.00;69.60;;;;;;5033322;28;20356;-79
2022/10/11 08:34:11;;;;;;;;;;;11.00;69.60;;;;;;5033750;28;20366;-79
2022/10/11 08:36:37;;;;;;;;;;;11.00;69.60;;;;;;5032881;28;19921;-79
2022/10/11 08:39:04;;;;;;;;;;;11.10;69.70;;;;;;5034649;28;19928;-79
2022/10/11 08:41:51;;;;;;;;;;;11.10;69.70;;;;;;5049375;28;19936;-79
2022/10/11 08:44:35;;;;;;;;;;;11.10;69.70;;;;;;5049428;28;19963;-79
2022/10/11 08:47:22;;;;;;;;;;;11.10;69.70;;;;;;5032751;28;19935;-79
2022/10/11 08:49:49;;;;;;;;;;;11.20;69.70;;;;;;5032556;28;19913;-79
2022/10/11 08:52:23;;;;;;;;;;;11.20;69.70;;;;;;5016599;28;19917;-79
2022/10/11 08:54:52;;;;;;;;;;;11.20;69.70;;;;;;5049464;28;19913;-80
2022/10/11 08:57:22;;;;;;;;;;;11.30;69.80;;;;;;5032394;28;19967;-78
2022/10/11 08:59:49;;;;;;;;;;;11.30;69.80;;;;;;5033012;28;19956;-78
2022/10/11 09:02:23;;;;;;;;;;;11.30;69.70;;;;;;5033507;28;19919;-79
2022/10/11 09:04:52;;;;;;;;;;;11.40;69.80;;;;;;5049158;28;19913;-79
2022/10/11 09:07:24;;;;;;;;;;;11.40;69.70;;;;;;5032377;28;19913;-79
2022/10/11 09:10:08;;;;;;;;;;;11.50;69.70;;;;;;5032889;28;19920;-79
2022/10/11 09:12:33;;;;;;;;;;;11.50;69.70;;;;;;5032439;28;20016;-79
2022/10/11 09:15:11;;;;;;;;;;;11.50;69.60;;;;;;5048792;28;19936;-79
2022/10/11 09:17:49;;;;;;;;;;;11.60;69.60;;;;;;5033561;28;19917;-78
2022/10/11 09:20:22;;;;;;;;;;;11.60;69.60;;;;;;5049676;28;19917;-79
2022/10/11 09:23:01;;;;;;;;;;;11.70;69.60;;;;;;5033558;28;19913;-79
2022/10/11 09:25:31;;;;;;;;;;;11.70;69.60;;;;;;5032597;28;19914;-79
2022/10/11 09:27:56;;;;;;;;;;;11.80;69.50;;;;;;5033496;28;20324;-78
2022/10/11 09:30:22;;;;;;;;;;;11.80;69.50;;;;;;5048937;28;19905;-79
2022/10/11 09:33:11;;;;;;;;;;;11.90;69.50;;;;;;5033501;28;20397;-79
2022/10/11 09:35:43;;;;;;;;;;;11.90;69.40;;;;;;5027367;28;19929;-79
2022/10/11 09:38:27;;;;;;;;;;;12.00;69.50;;;;;;5049131;28;19966;-79
2022/10/11 09:41:12;;;;;;;;;;;12.10;69.50;;;;;;5049822;28;19917;-78
2022/10/11 09:43:38;;;;;;;;;;;12.10;69.50;;;;;;5049186;28;19914;-79
2022/10/11 09:46:09;;;;;;;;;;;12.20;69.60;;;;;;5031822;28;19919;-79
2022/10/11 09:48:40;;;;;;;;;;;12.20;69.60;;;;;;5032788;28;19913;-79
2022/10/11 09:51:10;;;;;;;;;;;12.30;69.60;;;;;;5032422;28;19940;-79
2022/10/11 09:53:48;;;;;;;;;;;12.40;69.70;;;;;;5032149;28;19920;-78
2022/10/11 09:56:14;;;;;;;;;;;12.50;69.70;;;;;;5048554;28;20428;-78
2022/10/11 09:58:39;;;;;;;;;;;12.60;69.70;;;;;;5032836;28;19917;-78
2022/10/11 10:01:13;;;;;;;;;;;12.60;69.70;;;;;;5032215;28;20378;-79
2022/10/11 10:03:42;;;;;;;;;;;12.70;69.80;;;;;;5036996;28;19935;-79
2022/10/11 10:06:12;;;;;;;;;;;12.80;69.80;;;;;;5035540;28;19909;-78
2022/10/11 10:08:37;;;;;;;;;;;12.80;69.70;;;;;;5052682;28;19999;-79
2022/10/11 10:11:06;;;;;;;;;;;12.90;69.70;;;;;;5019206;28;19990;-78
2022/10/11 10:13:38;;;;;;;;;;;13.00;69.70;;;;;;5053056;28;19924;-79
2022/10/11 10:16:04;;;;;;;;;;;13.10;69.80;;;;;;5036263;28;19913;-79
2022/10/11 10:18:35;;;;;;;;;;;13.10;69.70;;;;;;5035576;28;20370;-78
2022/10/11 10:21:01;;;;;;;;;;;13.20;69.80;;;;;;5035649;28;20297;-79
2022/10/11 10:23:29;;;;;;;;;;;13.30;69.80;;;;;;5052657;28;19909;-79
2022/10/11 10:26:15;;;;;;;;;;;13.40;69.90;;;;;;5019173;28;20266;-78
2022/10/11 10:28:52;;;;;;;;;;;13.50;69.90;;;;;;5035651;28;19917;-78
2022/10/11 10:31:20;;;;;;;;;;;13.50;69.90;;;;;;5035344;28;20012;-78
2022/10/11 10:33:49;;;;;;;;;;;13.60;70.00;;;;;;5036681;28;19917;-78
2022/10/11 10:36:17;;;;;;;;;;;13.70;70.10;;;;;;5035138;28;19921;-79
2022/10/11 10:38:55;;;;;;;;;;;13.80;70.10;;;;;;5034997;28;20375;-78
2022/10/11 10:41:21;;;;;;;;;;;13.80;70.10;;;;;;5051683;28;19924;-78
2022/10/11 10:43:57;;;;;;;;;;;13.90;70.20;;;;;;5035085;28;19917;-78
2022/10/11 10:46:25;;;;;;;;;;;14.00;70.30;;;;;;5034981;28;20305;-79
2022/10/11 10:48:51;;;;;;;;;;;13.90;70.30;;;;;;5052310;28;19913;-79
2022/10/11 10:51:21;;;;;;;;;;;14.00;70.40;;;;;;5051501;28;19921;-80
2022/10/11 10:53:50;;;;;;;;;;;14.10;70.60;;;;;;5035092;28;20397;-79
2022/10/11 10:56:20;;;;;;;;;;;14.10;70.70;;;;;;5034575;28;19917;-79
2022/10/11 10:58:52;;;;;;;;;;;14.20;70.80;;;;;;5034777;28;19956;-79
2022/10/11 11:01:22;;;;;;;;;;;14.20;70.90;;;;;;5036017;28;19913;-79
2022/10/11 11:03:47;;;;;;;;;;;14.20;71.00;;;;;;5035683;28;19909;-79
2022/10/11 11:06:21;;;;;;;;;;;14.30;71.10;;;;;;5035319;28;20011;-79
2022/10/11 11:08:54;;;;;;;;;;;14.30;71.80;;;;;;5034597;28;19960;-79
2022/10/11 11:11:23;;;;;;;;;;;14.40;71.30;;;;;;5034800;28;19913;-80
2022/10/11 11:14:07;;;;;;;;;;;14.40;71.40;;;;;;5050906;28;19970;-79
2022/10/11 11:16:41;;;;;;;;;;;14.40;71.50;;;;;;5050952;28;19917;-79
2022/10/11 11:19:28;;;;;;;;;;;14.50;71.60;;;;;;5035395;28;19956;-79
2022/10/11 11:21:54;;;;;;;;;;;14.50;71.70;;;;;;5036365;28;19972;-80
2022/10/11 11:24:55;;;;;;;;;;;14.60;71.80;;;;;;5051237;28;19913;-79
2022/10/11 11:27:42;;;;;;;;;;;14.50;71.80;;;;;;4994005;28;19957;-80
2022/10/11 11:30:15;;;;;;;;;;;14.60;71.90;;;;;;5031064;28;19952;-80
2022/10/11 11:32:40;;;;;;;;;;;14.60;71.90;;;;;;5050680;28;20332;-79
2022/10/11 11:35:09;;;;;;;;;;;14.60;72.00;;;;;;5050500;28;19974;-80
2022/10/11 11:37:37;;;;;;;;;;;14.70;72.00;;;;;;5033888;28;19917;-79
2022/10/11 11:40:17;;;;;;;;;;;14.70;72.10;;;;;;5033921;28;19917;-79
2022/10/11 11:42:45;;;;;;;;;;;14.70;72.10;;;;;;5034981;28;19940;-79
2022/10/11 11:45:14;;;;;;;;;;;14.70;72.00;;;;;;5050585;28;19952;-79
2022/10/11 11:47:42;;;;;;;;;;;14.80;72.10;;;;;;5033667;28;19920;-79
2022/10/11 11:50:08;;;;;;;;;;;14.80;72.00;;;;;;5033734;28;19917;-79
2022/10/11 11:52:43;;;;;;;;;;;14.80;71.90;;;;;;5050450;28;19913;-79
2022/10/11 11:55:11;;;;;;;;;;;14.80;72.00;;;;;;5034096;28;20007;-79
2022/10/11 11:57:55;;;;;;;;;;;14.80;71.90;;;;;;5035478;28;20004;-79
2022/10/11 12:00:22;;;;;;;;;;;14.90;71.90;;;;;;5050984;28;19917;-79
2022/10/11 12:02:51;;;;;;;;;;;14.90;71.90;;;;;;5033670;28;19909;-79
2022/10/11 12:05:19;;;;;;;;;;;14.90;71.90;;;;;;5050851;28;19917;-79
2022/10/11 12:07:58;;;;;;;;;;;14.90;71.80;;;;;;5033105;28;19935;-79
2022/10/11 12:10:29;;;;;;;;;;;14.90;71.80;;;;;;5034004;28;19982;-79
2022/10/11 12:13:05;;;;;;;;;;;15.00;71.90;;;;;;5033539;28;19913;-79
2022/10/11 12:15:30;;;;;;;;;;;15.00;71.80;;;;;;5034577;28;20381;-79
2022/10/11 12:17:56;;;;;;;;;;;15.00;71.80;;;;;;5033914;28;19920;-79
2022/10/11 12:20:28;;;;;;;;;;;15.00;71.70;;;;;;5049836;28;19917;-79
2022/10/11 12:22:57;;;;;;;;;;;15.10;71.80;;;;;;5050583;28;19966;-79
2022/10/11 12:25:25;;;;;;;;;;;15.10;71.80;;;;;;5032697;28;19909;-79
2022/10/11 12:27:52;;;;;;;;;;;15.10;71.70;;;;;;5034705;28;19940;-79
2022/10/11 12:30:37;;;;;;;;;;;15.10;71.70;;;;;;5033323;28;20354;-79
2022/10/11 12:33:12;;;;;;;;;;;15.10;71.60;;;;;;5032688;28;20039;-79
2022/10/11 12:35:41;;;;;;;;;;;15.20;71.60;;;;;;5049566;28;20012;-80
2022/10/11 12:38:17;;;;;;;;;;;15.20;71.60;;;;;;5034134;28;19983;-80
2022/10/11 12:40:45;;;;;;;;;;;15.20;71.60;;;;;;5032764;28;19940;-79
2022/10/11 12:43:14;;;;;;;;;;;15.20;71.50;;;;;;5033000;28;20429;-80
2022/10/11 12:45:46;;;;;;;;;;;15.30;71.50;;;;;;5049738;28;20320;-79
2022/10/11 12:48:20;;;;;;;;;;;15.30;71.50;;;;;;5049688;28;20063;-79
2022/10/11 12:51:04;;;;;;;;;;;15.30;71.40;;;;;;5050147;28;19913;-79
2022/10/11 12:53:36;;;;;;;;;;;15.40;71.40;;;;;;5049607;28;19920;-79
2022/10/11 12:56:10;;;;;;;;;;;15.40;71.30;;;;;;5033606;28;19921;-80
2022/10/11 12:58:40;;;;;;;;;;;15.40;71.30;;;;;;5032673;28;19924;-79
2022/10/11 13:01:20;;;;;;;;;;;15.50;71.30;;;;;;5032638;28;19909;-79
2022/10/11 13:03:46;;;;;;;;;;;15.40;71.20;;;;;;5033381;28;20010;-79
2022/10/11 13:06:17;;;;;;;;;;;15.60;71.20;;;;;;5049267;28;19909;-79
2022/10/11 13:08:46;;;;;;;;;;;15.50;71.20;;;;;;5033504;28;19920;-79
2022/10/11 13:11:16;;;;;;;;;;;15.60;71.10;;;;;;5033518;28;20373;-79
2022/10/11 13:13:53;;;;;;;;;;;15.60;71.10;;;;;;5033260;28;20254;-79
2022/10/11 13:16:21;;;;;;;;;;;15.70;71.20;;;;;;5032273;28;19913;-79
2022/10/11 13:18:49;;;;;;;;;;;15.70;71.00;;;;;;5034023;28;20369;-80
2022/10/11 13:21:26;;;;;;;;;;;15.80;71.00;;;;;;5032363;28;19913;-79
2022/10/11 13:24:00;;;;;;;;;;;15.80;71.00;;;;;;5032796;28;19920;-79
2022/10/11 13:26:27;;;;;;;;;;;15.80;70.90;;;;;;5032328;28;19921;-79
2022/10/11 13:28:53;;;;;;;;;;;15.90;70.90;;;;;;5032588;28;19917;-79
2022/10/11 13:31:18;;;;;;;;;;;15.90;70.80;;;;;;5033069;28;19921;-79
2022/10/11 13:33:44;;;;;;;;;;;15.90;70.80;;;;;;5032199;28;19913;-79
2022/10/11 13:36:16;;;;;;;;;;;16.00;70.80;;;;;;5050353;28;20015;-78
2022/10/11 13:38:49;;;;;;;;;;;16.00;70.70;;;;;;5036401;28;19967;-79
2022/10/11 13:41:14;;;;;;;;;;;16.00;70.60;;;;;;5053693;28;20411;-80
2022/10/11 13:43:40;;;;;;;;;;;16.00;70.50;;;;;;5037540;28;19917;-79
2022/10/11 13:46:09;;;;;;;;;;;16.10;70.50;;;;;;5036411;28;19925;-79
2022/10/11 13:48:39;;;;;;;;;;;16.10;70.40;;;;;;5036096;28;19905;-78
2022/10/11 13:51:15;;;;;;;;;;;16.20;70.40;;;;;;5037682;28;19913;-80
2022/10/11 13:54:00;;;;;;;;;;;16.20;70.40;;;;;;5035720;28;19925;-79
2022/10/11 13:56:26;;;;;;;;;;;16.20;70.30;;;;;;5052527;28;19923;-79
2022/10/11 13:58:53;;;;;;;;;;;16.20;70.20;;;;;;5019638;28;19917;-80
2022/10/11 14:01:21;;;;;;;;;;;16.20;70.20;;;;;;5035959;28;19917;-79
2022/10/11 14:03:48;;;;;;;;;;;16.30;70.20;;;;;;5037145;28;19917;-79
2022/10/11 14:06:14;;;;;;;;;;;16.30;70.10;;;;;;5036787;28;20007;-80
2022/10/11 14:08:52;;;;;;;;;;;16.30;70.10;;;;;;5035737;28;19967;-79
2022/10/11 14:11:32;;;;;;;;;;;16.40;70.10;;;;;;5052347;28;19913;-79
2022/10/11 14:13:58;;;;;;;;;;;16.40;70.00;;;;;;5035699;28;19913;-79
2022/10/11 14:16:23;;;;;;;;;;;16.40;70.00;;;;;;5035367;28;20384;-79
2022/10/11 14:18:50;;;;;;;;;;;16.40;70.00;;;;;;5036919;28;19964;-79
2022/10/11 14:21:26;;;;;;;;;;;16.40;69.90;;;;;;5035907;28;19909;-80
2022/10/11 14:23:52;;;;;;;;;;;16.40;69.90;;;;;;5035357;28;19913;-79
2022/10/11 14:26:19;;;;;;;;;;;16.40;69.90;;;;;;5019087;28;19913;-79